Time;durP1;ratioP1;P1;durP2;ratioP2;P2;SDS_P1;SDS_P2;PMS_P1;PMS_P2;Temp;Humidity;BMP_temperature;BMP_pressure;BME280_temperature;BME280_humidity;BME280_pressure;Samples;Min_cycle;Max_cycle;Signal;HPM_P1;HPM_P2
2022/05/28 00:03:36;;;;;;;11.10;2.40;;;;;;;12.51;57.77;100349.69;5034645;28;20162;-84
2022/05/28 00:06:02;;;;;;;8.02;1.98;;;;;;;12.60;57.54;100343.47;5040335;28;20566;-84
2022/05/28 00:08:28;;;;;;;8.93;1.90;;;;;;;12.60;57.46;100348.09;5039879;28;20088;-84
2022/05/28 00:10:56;;;;;;;8.30;2.28;;;;;;;12.55;58.09;100335.22;5039586;28;20184;-84
2022/05/28 00:13:23;;;;;;;8.60;2.83;;;;;;;12.49;58.53;100333.53;5036024;28;20057;-84
2022/05/28 00:15:49;;;;;;;12.40;2.38;;;;;;;12.58;57.48;100339.34;5020138;28;20424;-85
2022/05/28 00:18:14;;;;;;;11.32;2.38;;;;;;;12.47;58.47;100339.25;5035288;28;20049;-83
2022/05/28 00:20:39;;;;;;;8.00;2.78;;;;;;;12.63;57.54;100336.63;5029530;28;20041;-84
2022/05/28 00:23:05;;;;;;;7.55;1.90;;;;;;;12.63;57.83;100336.63;5036510;28;20056;-85
2022/05/28 00:25:30;;;;;;;8.63;2.15;;;;;;;12.61;57.69;100327.84;5038617;28;20206;-84
2022/05/28 00:30:40;;;;;;;6.03;2.15;;;;;;;12.52;57.69;100327.53;5037567;28;20347;-84
2022/05/28 00:33:05;;;;;;;8.15;2.90;;;;;;;12.51;58.06;100317.69;5039767;28;20029;-85
2022/05/28 00:35:30;;;;;;;9.43;3.17;;;;;;;12.43;58.41;100327.19;5040298;28;20470;-84
2022/05/28 00:37:56;;;;;;;6.60;3.08;;;;;;;12.56;58.04;100319.63;5039883;28;20094;-84
2022/05/28 00:40:23;;;;;;;7.47;3.08;;;;;;;12.59;57.64;100325.38;5040492;28;20090;-84
2022/05/28 00:42:49;;;;;;;9.77;2.65;;;;;;;12.58;58.20;100322.91;5039587;28;20060;-82
2022/05/28 00:45:15;;;;;;;15.15;3.42;;;;;;;12.57;58.35;100326.75;5040652;28;20064;-84
2022/05/28 00:47:46;;;;;;;11.85;3.03;;;;;;;12.51;58.15;100322.34;5039280;28;20028;-83
2022/05/28 00:50:13;;;;;;;7.53;2.35;;;;;;;12.60;57.63;100323.47;5040314;28;20087;-84
2022/05/28 00:52:40;;;;;;;10.75;2.75;;;;;;;12.53;58.46;100322.91;5039276;28;20025;-83
2022/05/28 00:55:05;;;;;;;8.13;2.42;;;;;;;12.37;58.52;100320.06;5040106;28;20510;-85
2022/05/28 00:57:31;;;;;;;8.38;2.97;;;;;;;12.42;58.31;100313.81;5039857;28;20037;-84
2022/05/28 00:59:56;;;;;;;11.48;2.85;;;;;;;12.49;58.07;100319.84;5039484;28;20024;-82
2022/05/28 01:02:33;;;;;;;8.05;2.40;;;;;;;12.52;57.85;100318.50;5039884;28;20477;-83
2022/05/28 01:05:16;;;;;;;7.32;2.80;;;;;;;12.40;58.59;100316.81;5039908;28;20037;-84
2022/05/28 01:07:51;;;;;;;15.98;2.78;;;;;;;12.32;58.41;100318.13;5040147;28;20017;-83
2022/05/28 01:10:26;;;;;;;9.18;2.78;;;;;;;12.25;58.88;100314.78;5043427;28;20072;-83
2022/05/28 01:13:22;;;;;;;10.43;3.30;;;;;;;12.30;58.85;100316.72;5041868;28;20120;-84
2022/05/28 01:15:55;;;;;;;13.00;3.10;;;;;;;12.22;59.38;100310.69;5044245;28;20191;-85
2022/05/28 01:18:29;;;;;;;7.57;2.70;;;;;;;12.25;59.00;100301.94;5043768;28;20044;-84
2022/05/28 01:21:01;;;;;;;10.98;2.50;;;;;;;12.32;58.89;100306.34;5044306;28;20047;-84
2022/05/28 01:23:45;;;;;;;8.82;2.80;;;;;;;12.31;59.03;100310.16;5043528;28;20040;-83
2022/05/28 01:26:32;;;;;;;11.07;2.47;;;;;;;12.29;58.69;100296.75;5043343;28;20470;-83
2022/05/28 01:29:04;;;;;;;11.48;2.63;;;;;;;12.32;59.07;100298.16;5043975;28;20076;-84
2022/05/28 01:31:31;;;;;;;10.35;2.63;;;;;;;12.31;59.20;100293.75;5042813;28;20037;-84
2022/05/28 01:33:59;;;;;;;11.45;2.80;;;;;;;12.20;59.57;100291.00;5043035;28;20045;-84
2022/05/28 01:36:25;;;;;;;13.98;3.30;;;;;;;12.28;59.00;100286.09;5043357;28;20033;-84
2022/05/28 01:38:53;;;;;;;10.25;3.38;;;;;;;12.14;59.48;100281.09;5041867;28;20510;-84
2022/05/28 01:41:19;;;;;;;15.82;5.00;;;;;;;12.08;59.93;100282.91;5043723;28;20032;-84
2022/05/28 01:43:47;;;;;;;8.75;2.45;;;;;;;11.99;59.82;100284.50;5041203;28;20040;-84
2022/05/28 01:46:16;;;;;;;15.50;4.63;;;;;;;12.16;59.58;100289.88;5042861;28;20057;-84
2022/05/28 01:48:44;;;;;;;11.98;3.78;;;;;;;12.11;60.18;100282.44;5043161;28;20029;-84
2022/05/28 01:51:13;;;;;;;10.50;2.72;;;;;;;12.15;59.69;100288.19;5042522;28;20040;-84
2022/05/28 01:56:24;;;;;;;9.98;2.88;;;;;;;12.12;59.80;100291.47;5043222;28;20059;-84
2022/05/28 01:58:51;;;;;;;8.73;2.35;;;;;;;12.19;60.01;100292.06;5043304;28;20415;-84
2022/05/28 02:01:16;;;;;;;8.75;2.72;;;;;;;12.25;59.50;100290.19;5042574;28;20040;-84
2022/05/28 02:03:45;;;;;;;11.52;2.90;;;;;;;12.18;59.80;100293.16;5042751;28;20032;-84
2022/05/28 02:06:11;;;;;;;16.50;3.47;;;;;;;12.12;59.92;100283.28;5043018;28;20175;-84
2022/05/28 02:08:39;;;;;;;7.40;1.88;;;;;;;12.01;60.43;100288.63;5042685;28;20169;-84
2022/05/28 02:11:14;;;;;;;16.27;4.78;;;;;;;11.99;61.18;100279.88;5042803;28;20487;-84
2022/05/28 02:13:55;;;;;;;10.15;3.05;;;;;;;11.92;61.15;100279.25;5046521;28;20152;-84
2022/05/28 02:16:29;;;;;;;11.05;2.05;;;;;;;12.00;60.68;100281.50;5062032;28;20086;-86
2022/05/28 02:19:01;;;;;;;11.88;3.03;;;;;;;11.93;61.25;100283.66;5022499;28;20095;-85
2022/05/28 02:21:38;;;;;;;15.30;3.83;;;;;;;11.81;61.96;100286.56;5022466;28;20132;-84
2022/05/28 02:24:15;;;;;;;8.15;1.95;;;;;;;11.89;61.24;100282.53;5036812;28;20500;-84
2022/05/28 02:26:50;;;;;;;10.90;2.50;;;;;;;11.90;61.30;100276.78;5042448;28;20025;-85
2022/05/28 02:29:15;;;;;;;9.90;2.85;;;;;;;11.93;61.36;100274.63;5042373;28;20044;-85
2022/05/28 02:31:46;;;;;;;8.80;2.67;;;;;;;11.66;62.23;100270.84;5042056;28;20044;-85
2022/05/28 02:34:13;;;;;;;10.40;3.05;;;;;;;11.72;62.11;100275.28;5041387;28;20041;-84
2022/05/28 02:36:39;;;;;;;18.27;3.25;;;;;;;11.69;62.06;100275.81;5042388;28;20033;-84
2022/05/28 02:39:04;;;;;;;11.30;2.60;;;;;;;11.89;61.63;100277.06;5041872;28;20040;-84
2022/05/28 02:41:29;;;;;;;12.63;2.53;;;;;;;11.88;61.34;100267.19;5043082;28;20049;-86
2022/05/28 02:43:55;;;;;;;7.70;2.30;;;;;;;11.84;61.44;100266.09;5041570;28;20040;-84
2022/05/28 02:46:20;;;;;;;7.03;2.90;;;;;;;11.85;61.57;100267.72;5041746;28;20048;-84
2022/05/28 02:48:58;;;;;;;12.82;2.80;;;;;;;11.89;61.56;100260.66;5041464;28;20035;-84
2022/05/28 02:51:23;;;;;;;18.60;2.92;;;;;;;11.84;62.16;100266.09;5041937;28;20028;-83
2022/05/28 02:53:52;;;;;;;8.23;2.67;;;;;;;11.75;61.88;100257.53;5041715;28;20033;-83
2022/05/28 02:56:18;;;;;;;11.90;3.20;;;;;;;11.87;61.52;100257.38;5041348;28;20036;-84
2022/05/28 02:58:43;;;;;;;8.10;2.78;;;;;;;11.81;62.02;100261.97;5042379;28;20036;-84
2022/05/28 03:01:29;;;;;;;13.00;2.43;;;;;;;11.81;62.02;100270.16;5041283;28;20025;-84
2022/05/28 03:03:56;;;;;;;6.72;1.90;;;;;;;11.84;62.23;100271.56;5041644;28;20254;-84
2022/05/28 03:06:21;;;;;;;10.95;2.80;;;;;;;11.78;62.23;100276.97;5041873;28;20025;-84
2022/05/28 03:08:47;;;;;;;6.47;2.17;;;;;;;11.72;62.49;100272.53;5041547;28;20095;-84
2022/05/28 03:11:13;;;;;;;9.75;3.70;;;;;;;11.78;62.77;100268.78;5041601;28;20423;-83
2022/05/28 03:13:39;;;;;;;7.97;2.17;;;;;;;11.72;62.75;100275.28;5040698;28;20072;-84
2022/05/28 03:16:05;;;;;;;13.98;4.07;;;;;;;11.73;62.94;100271.47;5041771;28;20033;-84
2022/05/28 03:18:30;;;;;;;9.45;2.42;;;;;;;11.66;63.27;100270.84;5041062;28;20118;-84
2022/05/28 03:20:55;;;;;;;12.13;3.08;;;;;;;11.59;63.45;100271.09;5041591;28;20111;-84
2022/05/28 03:23:21;;;;;;;16.73;3.08;;;;;;;11.67;63.65;100277.97;5040321;28;20039;-84
2022/05/28 03:25:46;;;;;;;17.33;3.35;;;;;;;11.83;62.91;100272.63;5040943;28;20492;-84
2022/05/28 03:28:11;;;;;;;13.43;2.80;;;;;;;11.74;63.46;100277.75;5039609;28;20051;-84
2022/05/28 03:30:36;;;;;;;14.40;3.23;;;;;;;11.72;63.46;100275.28;5039159;28;20289;-84
2022/05/28 03:33:02;;;;;;;9.35;3.10;;;;;;;11.76;62.97;100270.09;5040707;28;20270;-85
2022/05/28 03:35:27;;;;;;;9.10;2.70;;;;;;;11.67;63.63;100267.84;5039698;28;20060;-84
2022/05/28 03:40:56;;;;;;;8.80;3.40;;;;;;;11.56;64.85;100277.88;5038492;28;20056;-85
2022/05/28 03:43:21;;;;;;;11.93;2.83;;;;;;;11.68;64.12;100272.25;5039224;28;20037;-84
2022/05/28 03:45:46;;;;;;;10.52;2.45;;;;;;;11.68;64.34;100269.50;5041581;28;20024;-85
2022/05/28 03:48:12;;;;;;;13.50;3.38;;;;;;;11.72;64.57;100269.81;5040188;28;20087;-84
2022/05/28 03:50:37;;;;;;;9.30;2.80;;;;;;;11.74;64.48;100272.28;5041586;28;20559;-84
2022/05/28 03:53:03;;;;;;;9.82;4.38;;;;;;;11.82;64.08;100274.53;5040552;28;20145;-84
2022/05/28 03:55:29;;;;;;;10.85;3.03;;;;;;;11.75;64.83;100274.78;5041418;28;20037;-85
2022/05/28 03:57:54;;;;;;;24.77;3.42;;;;;;;11.65;64.79;100277.41;5040956;28;20075;-85
2022/05/28 04:00:20;;;;;;;12.68;2.85;;;;;;;11.71;64.93;100279.09;5040837;28;20024;-85
2022/05/28 04:02:45;;;;;;;9.45;3.10;;;;;;;11.79;64.92;100281.34;5040356;28;20114;-84
2022/05/28 04:05:12;;;;;;;13.73;3.70;;;;;;;11.73;65.33;100276.94;5039340;28;20036;-84
2022/05/28 04:07:39;;;;;;;13.10;3.60;;;;;;;11.77;64.80;100280.78;5041808;28;20033;-85
2022/05/28 04:10:06;;;;;;;17.52;3.42;;;;;;;11.73;65.44;100282.41;5039282;28;20052;-84
2022/05/28 04:12:32;;;;;;;10.90;3.25;;;;;;;11.76;65.10;100278.31;5040693;28;20291;-85
2022/05/28 04:14:57;;;;;;;8.23;2.75;;;;;;;11.73;65.43;100287.03;5040441;28;20504;-84
2022/05/28 04:17:22;;;;;;;9.35;2.95;;;;;;;11.76;65.71;100287.31;5038927;28;20636;-84
2022/05/28 04:19:48;;;;;;;9.35;3.55;;;;;;;11.81;65.77;100293.91;5041029;28;20499;-84
2022/05/28 04:22:14;;;;;;;12.55;4.00;;;;;;;11.83;65.59;100291.75;5041036;28;20086;-85
2022/05/28 04:24:39;;;;;;;13.68;3.22;;;;;;;11.90;65.38;100295.91;5040551;28;20095;-84
2022/05/28 04:27:05;;;;;;;6.20;2.73;;;;;;;11.82;66.07;100287.38;5040300;28;20064;-85
2022/05/28 04:29:30;;;;;;;7.25;2.50;;;;;;;11.96;65.76;100294.03;5040878;28;20258;-84
2022/05/28 04:31:55;;;;;;;22.83;3.43;;;;;;;12.01;65.45;100302.28;5039893;28;20520;-84
2022/05/28 04:34:21;;;;;;;17.52;3.35;;;;;;;11.90;66.10;100300.53;5040070;28;20265;-85
2022/05/28 04:36:46;;;;;;;10.50;3.05;;;;;;;12.03;65.92;100296.56;5040279;28;20032;-84
2022/05/28 04:39:11;;;;;;;9.52;2.67;;;;;;;12.12;65.40;100296.94;5040361;28;20346;-84
2022/05/28 04:41:37;;;;;;;13.48;3.38;;;;;;;11.96;66.28;100310.44;5039986;28;20037;-84
2022/05/28 04:44:02;;;;;;;21.95;6.55;;;;;;;12.04;66.28;100298.19;5043435;28;20123;-84
2022/05/28 04:46:27;;;;;;;7.47;3.50;;;;;;;11.73;67.52;100306.97;5044047;28;20039;-84
2022/05/28 04:49:06;;;;;;;10.00;3.00;;;;;;;11.90;66.78;100303.28;5043756;28;20025;-84
2022/05/28 04:51:31;;;;;;;11.80;3.17;;;;;;;11.78;67.42;100312.47;5044288;28;20483;-84
2022/05/28 04:53:57;;;;;;;10.55;3.10;;;;;;;11.93;67.13;100308.22;5057418;28;20064;-84
2022/05/28 04:56:22;;;;;;;9.75;2.42;;;;;;;11.82;67.77;100307.31;5063619;28;20056;-83
2022/05/28 04:58:47;;;;;;;16.90;2.97;;;;;;;11.81;67.38;100310.31;5063767;28;20109;-84
2022/05/28 05:01:14;;;;;;;14.80;3.53;;;;;;;11.93;67.28;100315.59;5054930;28;20443;-85
2022/05/28 05:03:40;;;;;;;9.40;3.42;;;;;;;11.95;67.49;100306.06;5043997;28;20041;-83
2022/05/28 05:06:05;;;;;;;12.43;3.38;;;;;;;12.09;66.94;100311.09;5042468;28;20036;-84
2022/05/28 05:08:30;;;;;;;10.73;2.65;;;;;;;12.17;66.53;100313.38;5044034;28;20037;-82
2022/05/28 05:10:56;;;;;;;24.00;3.58;;;;;;;12.22;66.57;100316.16;5043679;28;20316;-84
2022/05/28 05:13:21;;;;;;;8.20;2.40;;;;;;;12.11;67.79;100315.25;5044221;28;20025;-83
2022/05/28 05:15:47;;;;;;;8.15;2.42;;;;;;;12.24;67.01;100313.94;5063352;28;20108;-84
2022/05/28 05:18:12;;;;;;;8.85;3.65;;;;;;;12.20;67.60;100309.28;5048280;28;20372;-84
2022/05/28 05:20:37;;;;;;;10.47;3.67;;;;;;;12.20;67.78;100317.50;5044026;28;20028;-84
2022/05/28 05:23:03;;;;;;;11.75;3.72;;;;;;;12.31;67.70;100312.91;5043219;28;20840;-84
2022/05/28 05:25:28;;;;;;;10.25;3.50;;;;;;;12.46;66.30;100321.22;5041997;28;20067;-83
2022/05/28 05:27:54;;;;;;;6.95;2.00;;;;;;;12.49;66.11;100319.84;5042758;28;20056;-83
2022/05/28 05:30:20;;;;;;;11.90;3.40;;;;;;;12.27;67.23;100329.00;5042166;28;20063;-85
2022/05/28 05:32:45;;;;;;;10.88;3.88;;;;;;;12.45;66.89;100324.19;5042984;28;20075;-84
2022/05/28 05:35:11;;;;;;;8.73;2.42;;;;;;;12.41;66.79;100328.56;5043921;28;20099;-84
2022/05/28 05:37:36;;;;;;;6.90;3.30;;;;;;;12.37;67.22;100334.56;5042768;28;20059;-85
2022/05/28 05:40:03;;;;;;;17.27;3.35;;;;;;;12.24;67.37;100335.81;5042323;28;20032;-84
2022/05/28 05:42:28;;;;;;;11.65;3.70;;;;;;;12.28;67.69;100341.59;5043234;28;20124;-83
2022/05/28 05:44:54;;;;;;;11.85;2.92;;;;;;;12.39;67.59;100339.75;5042878;28;20577;-84
2022/05/28 05:47:19;;;;;;;8.93;2.45;;;;;;;12.46;66.72;100337.63;5042204;28;20033;-84
2022/05/28 05:53:08;;;;;;;20.70;2.90;;;;;;;12.17;67.66;100345.31;5041546;28;20059;-84
2022/05/28 05:55:33;;;;;;;10.07;3.17;;;;;;;12.39;67.03;100345.22;5042800;28;20021;-83
2022/05/28 05:57:58;;;;;;;5.63;2.10;;;;;;;12.48;66.42;100343.66;5042335;28;20341;-85
2022/05/28 06:00:24;;;;;;;6.63;2.13;;;;;;;12.77;65.02;100344.38;5043229;28;20304;-85
2022/05/28 06:02:49;;;;;;;13.48;2.53;;;;;;;12.76;65.34;100348.19;5042280;28;20815;-83
2022/05/28 06:05:14;;;;;;;5.60;1.93;;;;;;;12.41;65.47;100329.38;5042647;28;20387;-85
2022/05/28 06:07:39;;;;;;;8.02;2.20;;;;;;;12.52;65.12;100341.22;5041138;28;20273;-84
2022/05/28 06:10:07;;;;;;;5.43;1.30;;;;;;;12.56;64.60;100338.78;5042173;28;20059;-84
2022/05/28 06:12:32;;;;;;;12.85;1.80;;;;;;;12.73;63.31;100346.81;5043012;28;20261;-85
2022/05/28 06:14:58;;;;;;;7.10;3.40;;;;;;;12.72;63.86;100342.41;5041553;28;20040;-84
2022/05/28 06:17:23;;;;;;;7.40;1.83;;;;;;;12.90;63.47;100352.09;5042543;28;20313;-84
2022/05/28 06:19:48;;;;;;;6.63;1.93;;;;;;;12.75;63.18;100339.16;5042237;28;20703;-84
2022/05/28 06:22:13;;;;;;;25.17;3.22;;;;;;;12.69;62.64;100348.44;5043519;28;20277;-84
2022/05/28 06:24:39;;;;;;;7.10;1.77;;;;;;;12.71;63.20;100338.06;5046664;28;20035;-85
2022/05/28 06:27:04;;;;;;;7.70;2.43;;;;;;;12.94;62.86;100347.72;5046867;28;20277;-83
2022/05/28 06:29:30;;;;;;;9.70;4.07;;;;;;;12.86;62.95;100352.88;5046686;28;20285;-84
2022/05/28 06:31:55;;;;;;;7.43;2.33;;;;;;;12.90;63.25;100335.66;5042078;28;20091;-84
2022/05/28 06:34:20;;;;;;;8.82;2.80;;;;;;;13.07;62.87;100334.66;5042129;28;20028;-82
2022/05/28 06:36:46;;;;;;;8.33;2.70;;;;;;;13.17;61.99;100342.91;5041648;28;20079;-84
2022/05/28 06:39:11;;;;;;;8.87;1.90;;;;;;;12.95;61.78;100340.34;5042152;28;20266;-84
2022/05/28 06:41:36;;;;;;;6.53;2.00;;;;;;;12.67;61.96;100343.22;5041155;28;20828;-83
2022/05/28 06:44:02;;;;;;;6.03;1.50;;;;;;;12.47;61.51;100347.47;5041507;28;20286;-84
2022/05/28 06:46:27;;;;;;;10.52;3.08;;;;;;;12.86;61.79;100344.66;5041025;28;20451;-84
2022/05/28 06:48:52;;;;;;;8.40;2.53;;;;;;;13.18;60.49;100350.03;5041891;28;20087;-84
2022/05/28 06:51:17;;;;;;;6.20;1.50;;;;;;;12.84;60.31;100350.41;5041674;28;20456;-84
2022/05/28 06:53:47;;;;;;;5.83;1.60;;;;;;;12.90;60.26;100345.78;5039396;28;20328;-83
2022/05/28 06:56:13;;;;;;;6.47;1.73;;;;;;;12.90;60.10;100348.53;5041160;28;20258;-84
2022/05/28 06:58:39;;;;;;;4.40;1.70;;;;;;;13.11;58.79;100351.34;5039285;28;20037;-84
2022/05/28 07:01:17;;;;;;;4.45;1.30;;;;;;;13.37;58.50;100355.00;5040641;28;20037;-83
2022/05/28 07:03:43;;;;;;;4.80;0.95;;;;;;;13.36;57.36;100350.66;5040682;28;20032;-83
2022/05/28 07:06:10;;;;;;;8.55;2.17;;;;;;;13.57;56.83;100353.44;5041104;28;20405;-83
2022/05/28 07:08:35;;;;;;;9.10;1.38;;;;;;;13.82;54.37;100349.13;5041822;28;20401;-83
2022/05/28 07:11:05;;;;;;;6.03;0.80;;;;;;;13.62;54.78;100358.94;5041266;28;20116;-84
2022/05/28 07:13:30;;;;;;;29.20;5.63;;;;;;;13.10;55.80;100352.47;5041413;28;20037;-84
2022/05/28 07:15:56;;;;;;;6.90;1.10;;;;;;;13.50;54.88;100352.88;5039521;28;20021;-84
2022/05/28 07:18:21;;;;;;;4.80;1.88;;;;;;;13.81;54.47;100344.72;5040397;28;20509;-84
2022/05/28 07:20:47;;;;;;;7.47;2.40;;;;;;;14.17;53.76;100351.31;5040561;28;20066;-84
2022/05/28 07:23:20;;;;;;;14.55;2.15;;;;;;;14.16;53.84;100355.97;5039603;28;20056;-84
2022/05/28 07:25:46;;;;;;;7.72;1.30;;;;;;;14.36;54.59;100357.88;5040012;28;20439;-85
2022/05/28 07:28:31;;;;;;;5.53;1.35;;;;;;;14.20;55.17;100361.72;5040089;28;20038;-82
2022/05/28 07:31:02;;;;;;;8.05;2.05;;;;;;;14.14;55.03;100363.66;5038728;28;20041;-84
2022/05/28 07:33:30;;;;;;;4.15;0.90;;;;;;;13.91;54.90;100367.75;5040215;28;20024;-85
2022/05/28 07:35:58;;;;;;;5.38;1.15;;;;;;;14.14;54.31;100365.59;5040798;28;20104;-85
2022/05/28 07:38:24;;;;;;;8.30;1.30;;;;;;;14.03;54.45;100357.34;5040386;28;20094;-83
2022/05/28 07:40:50;;;;;;;4.85;1.58;;;;;;;14.34;54.92;100354.59;5041177;28;20127;-89
2022/05/28 07:43:16;;;;;;;2.83;1.00;;;;;;;14.22;54.61;100357.63;5040646;28;20271;-85
2022/05/28 07:45:43;;;;;;;8.93;1.88;;;;;;;14.26;54.73;100363.38;5040281;28;20555;-87
2022/05/28 07:48:10;;;;;;;7.00;1.45;;;;;;;14.06;54.26;100359.53;5041013;28;20056;-88
2022/05/28 07:50:35;;;;;;;2.95;1.13;;;;;;;13.93;54.97;100349.13;5040710;28;20064;-89
2022/05/28 07:53:01;;;;;;;6.38;1.27;;;;;;;14.07;55.20;100358.47;5038672;28;20170;-87
2022/05/28 07:55:28;;;;;;;34.85;2.33;;;;;;;13.95;54.13;100357.91;5040965;28;20478;-86
2022/05/28 07:57:54;;;;;;;4.80;0.95;;;;;;;13.52;54.02;100358.91;5040829;28;20027;-86
2022/05/28 08:00:19;;;;;;;3.10;1.85;;;;;;;13.39;54.99;100362.97;5043456;28;20829;-84
2022/05/28 08:02:45;;;;;;;14.32;1.42;;;;;;;13.70;55.09;100354.03;5033566;28;20089;-84
2022/05/28 08:05:10;;;;;;;9.15;1.95;;;;;;;13.79;55.25;100360.59;5040144;28;20029;-84
2022/05/28 08:07:36;;;;;;;7.13;1.75;;;;;;;13.95;53.84;100349.69;5039560;28;20067;-84
2022/05/28 08:10:03;;;;;;;2.47;1.20;;;;;;;13.84;54.03;100354.31;5038970;28;20423;-85
2022/05/28 08:12:28;;;;;;;2.65;0.80;;;;;;;14.01;53.29;100345.84;5038956;28;20128;-82
2022/05/28 08:14:54;;;;;;;8.35;1.33;;;;;;;14.10;52.43;100348.84;5043938;28;20104;-84
2022/05/28 08:17:19;;;;;;;8.05;2.03;;;;;;;14.20;51.74;100345.28;5039586;28;20021;-85
2022/05/28 08:25:12;;;;;;;15.40;2.67;;;;;;;14.73;47.98;100343.25;5040217;28;20527;-87
2022/05/28 08:27:37;;;;;;;14.20;1.73;;;;;;;14.72;49.74;100347.94;5039364;28;20835;-86
2022/05/28 08:30:04;;;;;;;4.57;0.95;;;;;;;14.31;48.89;100343.34;5042395;28;20025;-89
2022/05/28 08:32:31;;;;;;;4.43;0.75;;;;;;;14.44;49.01;100355.69;5042064;28;20503;-88
2022/05/28 08:34:56;;;;;;;8.00;1.15;;;;;;;14.33;49.81;100358.44;5043976;28;20025;-86
2022/05/28 08:37:21;;;;;;;4.07;1.37;;;;;;;14.39;51.33;100358.44;5043307;28;20028;-86
2022/05/28 08:39:46;;;;;;;3.77;0.93;;;;;;;14.41;51.61;100359.81;5044510;28;20322;-87
2022/05/28 08:42:14;;;;;;;6.45;1.85;;;;;;;14.32;51.25;100359.53;5043805;28;20277;-86
2022/05/28 08:44:41;;;;;;;3.78;1.25;;;;;;;14.45;51.48;100360.91;5044449;28;20063;-85
2022/05/28 08:47:18;;;;;;;6.07;0.90;;;;;;;14.29;51.17;100351.88;5042647;28;20436;-83
2022/05/28 08:49:45;;;;;;;17.50;1.88;;;;;;;14.39;49.96;100350.19;5043311;28;20025;-85
2022/05/28 08:52:25;;;;;;;4.68;1.02;;;;;;;14.57;50.15;100349.63;5044305;28;20028;-85
2022/05/28 08:54:58;;;;;;;4.45;1.33;;;;;;;14.93;49.50;100348.72;5037896;28;20032;-85
2022/05/28 08:57:34;;;;;;;6.57;1.00;;;;;;;14.82;49.72;100347.09;5041247;28;20032;-86
2022/05/28 09:00:03;;;;;;;4.18;1.45;;;;;;;15.04;49.15;100337.72;5039437;28;20056;-86
2022/05/28 09:02:37;;;;;;;4.75;0.90;;;;;;;15.39;47.95;100335.06;5039772;28;20566;-87
2022/05/28 09:05:04;;;;;;;68.60;7.00;;;;;;;15.18;45.74;100326.94;5040296;28;20098;-86
2022/05/28 09:07:30;;;;;;;4.07;1.13;;;;;;;15.31;45.88;100319.19;5040827;28;20041;-86
2022/05/28 09:09:57;;;;;;;5.03;0.60;;;;;;;15.40;45.79;100331.22;5041051;28;20090;-86
2022/05/28 09:12:34;;;;;;;5.40;0.80;;;;;;;15.56;43.93;100328.38;5041338;28;20102;-87
2022/05/28 09:14:59;;;;;;;8.93;1.48;;;;;;;15.62;44.10;100330.78;5043729;28;20025;-86
2022/05/28 09:17:46;;;;;;;7.05;0.88;;;;;;;15.86;43.86;100324.56;5042148;28;20029;-86
2022/05/28 09:20:16;;;;;;;4.20;0.88;;;;;;;15.99;43.74;100323.09;5040562;28;20049;-85
2022/05/28 09:25:48;;;;;;;3.60;0.52;;;;;;;15.74;43.36;100321.38;5038494;28;20052;-85
2022/05/28 09:28:43;;;;;;;9.07;1.40;;;;;;;15.62;44.24;100319.00;5044668;28;20044;-85
2022/05/28 09:31:54;;;;;;;5.20;1.20;;;;;;;15.57;45.16;100330.00;5044964;28;20525;-84
2022/05/28 09:34:50;;;;;;;6.72;1.15;;;;;;;15.47;45.62;100328.16;5031494;28;20110;-85
2022/05/28 09:37:39;;;;;;;3.15;0.93;;;;;;;15.61;46.83;100339.34;5043860;28;20033;-85
2022/05/28 09:40:09;;;;;;;3.22;1.00;;;;;;;15.48;46.41;100330.59;5043647;28;20051;-86
2022/05/28 09:42:52;;;;;;;2.97;0.95;;;;;;;15.40;46.62;100333.94;5041441;28;20025;-84
2022/05/28 09:45:31;;;;;;;7.50;2.53;;;;;;;15.60;46.08;100333.00;5040794;28;20529;-86
2022/05/28 09:47:56;;;;;;;7.60;1.85;;;;;;;15.97;45.87;100325.31;5041961;28;20029;-86
2022/05/28 09:50:38;;;;;;;5.05;1.48;;;;;;;16.20;45.63;100322.13;5042058;28;20051;-86
2022/05/28 09:56:01;;;;;;;6.20;1.60;;;;;;;16.39;43.96;100307.66;5043182;28;20048;-86
2022/05/28 09:58:30;;;;;;;5.07;1.38;;;;;;;16.96;42.79;100314.44;5043088;28;20025;-86
2022/05/28 10:01:17;;;;;;;17.50;1.23;;;;;;;17.26;42.91;100312.44;5043017;28;20120;-85
2022/05/28 10:09:35;;;;;;;4.53;1.42;;;;;;;17.48;42.68;100302.75;5040759;28;20493;-86
2022/05/28 10:12:22;;;;;;;7.13;1.02;;;;;;;17.20;43.25;100319.13;5043541;28;20029;-85
2022/05/28 10:15:05;;;;;;;5.43;1.00;;;;;;;16.82;43.54;100315.16;5025529;28;20843;-85
2022/05/28 10:17:34;;;;;;;2.88;1.05;;;;;;;16.52;44.57;100308.88;5035078;28;20128;-84
2022/05/28 10:20:02;;;;;;;4.25;1.75;;;;;;;16.69;44.92;100317.53;5042681;28;20067;-86
2022/05/28 10:22:29;;;;;;;3.38;1.05;;;;;;;16.60;44.96;100315.72;5042006;28;20033;-85
2022/05/28 10:25:06;;;;;;;3.10;1.20;;;;;;;16.50;44.71;100313.84;5042595;28;20112;-85
2022/05/28 10:27:34;;;;;;;3.75;1.15;;;;;;;16.14;44.81;100313.13;5041476;28;20071;-85
2022/05/28 10:30:05;;;;;;;4.90;1.48;;;;;;;16.02;45.36;100309.91;5041255;28;20850;-86
2022/05/28 10:35:31;;;;;;;5.22;1.20;;;;;;;16.57;44.47;100314.34;5039044;28;20044;-86
2022/05/28 10:38:27;;;;;;;4.60;1.15;;;;;;;16.57;44.34;100314.34;5040734;28;20583;-86
2022/05/28 10:41:01;;;;;;;17.00;1.83;;;;;;;17.30;43.46;100304.38;5028229;28;20147;-84
2022/05/28 10:43:28;;;;;;;7.45;1.42;;;;;;;17.74;42.59;100294.06;5040720;28;20447;-84
2022/05/28 10:46:08;;;;;;;3.35;1.20;;;;;;;17.52;42.04;100289.19;5041381;28;20047;-85
2022/05/28 10:48:37;;;;;;;5.43;1.60;;;;;;;17.34;43.06;100292.47;5042138;28;20488;-86
2022/05/28 10:51:19;;;;;;;4.05;1.20;;;;;;;16.97;43.41;100302.31;5042415;28;20032;-83
2022/05/28 10:53:56;;;;;;;5.22;1.00;;;;;;;16.48;43.03;100302.31;5041647;28;20044;-87
2022/05/28 10:56:36;;;;;;;5.28;1.45;;;;;;;16.06;43.03;100300.00;5041440;28;20127;-84
2022/05/28 10:59:10;;;;;;;2.72;0.60;;;;;;;16.40;42.35;100298.28;5041921;28;20029;-86
2022/05/28 11:01:39;;;;;;;2.88;0.90;;;;;;;16.48;42.22;100303.16;5041793;28;20116;-86
2022/05/28 11:04:18;;;;;;;15.75;2.13;;;;;;;16.13;43.68;100294.97;5041709;28;20662;-86
2022/05/28 11:06:56;;;;;;;5.13;1.02;;;;;;;16.20;44.63;100306.47;5041790;28;20036;-85
2022/05/28 11:09:40;;;;;;;6.40;1.50;;;;;;;16.33;44.66;100304.94;5041727;28;20294;-85
2022/05/28 11:12:16;;;;;;;4.88;1.38;;;;;;;16.35;45.30;100299.16;5041732;28;20535;-85
2022/05/28 11:14:56;;;;;;;13.48;3.33;;;;;;;16.22;44.83;100292.41;5041227;28;20043;-85
2022/05/28 11:17:42;;;;;;;6.43;1.13;;;;;;;16.42;45.06;100307.88;5041244;28;20400;-85
2022/05/28 11:20:24;;;;;;;11.30;1.45;;;;;;;16.98;44.37;100299.28;5041936;28;20544;-85
2022/05/28 11:23:15;;;;;;;6.18;1.02;;;;;;;17.61;43.34;100285.44;5041462;28;20241;-85
2022/05/28 11:26:04;;;;;;;6.03;1.15;;;;;;;17.82;42.46;100274.09;5040415;28;20029;-86
2022/05/28 11:28:45;;;;;;;2.72;0.75;;;;;;;17.90;42.53;100274.53;5039882;28;20040;-85
2022/05/28 11:31:29;;;;;;;7.28;1.02;;;;;;;17.57;43.22;100278.91;5040590;28;20036;-85
2022/05/28 11:34:04;;;;;;;1.92;0.85;;;;;;;17.53;43.20;100277.88;5040942;28;20062;-84
2022/05/28 11:36:40;;;;;;;12.55;1.38;;;;;;;17.97;41.86;100261.16;5041686;28;20056;-85
2022/05/28 11:39:12;;;;;;;5.93;1.35;;;;;;;18.34;42.03;100274.34;5041202;28;20071;-85
2022/05/28 11:42:07;;;;;;;4.85;1.55;;;;;;;18.28;41.54;100273.63;5041097;28;20044;-86
2022/05/28 11:44:39;;;;;;;6.10;1.10;;;;;;;18.95;39.63;100256.81;5041138;28;20056;-85
2022/05/28 11:47:22;;;;;;;2.77;0.70;;;;;;;19.08;39.11;100255.16;5040560;28;20629;-85
2022/05/28 11:53:27;;;;;;;7.30;1.10;;;;;;;18.70;38.80;100246.00;5041249;28;20036;-85
2022/05/28 11:55:56;;;;;;;6.70;1.05;;;;;;;18.32;39.61;100247.03;5044481;28;20348;-86
2022/05/28 11:58:27;;;;;;;5.88;0.85;;;;;;;17.98;40.76;100249.00;5028687;28;20034;-86
2022/05/28 12:00:57;;;;;;;7.38;1.40;;;;;;;17.48;42.06;100253.97;5024194;28;20041;-86
2022/05/28 12:03:25;;;;;;;5.05;1.50;;;;;;;17.21;42.87;100257.38;5032026;28;20395;-86
2022/05/28 12:06:34;;;;;;;14.73;2.00;;;;;;;16.85;42.04;100251.25;5040433;28;20464;-86
2022/05/28 12:12:32;;;;;;;5.05;1.67;;;;;;;18.83;38.52;100233.31;5039300;28;20704;-86
2022/05/28 12:15:19;;;;;;;6.00;0.70;;;;;;;18.46;38.40;100227.72;5048812;28;20406;-85